createdAt,value
2022-08-02T00:00:38.089Z,16.90
2022-08-02T00:06:16.592Z,16.80
2022-08-02T00:09:00.027Z,16.90
2022-08-02T00:11:36.829Z,16.60
2022-08-02T00:14:24.768Z,17.30
2022-08-02T00:17:00.930Z,16.80
2022-08-02T00:19:54.720Z,17.10
2022-08-02T00:23:04.986Z,16.70
2022-08-02T00:32:33.831Z,16.60
2022-08-02T00:35:32.780Z,16.60
2022-08-02T00:38:12.811Z,16.60
2022-08-02T00:43:58.256Z,16.40
2022-08-02T00:46:50.707Z,16.50
2022-08-02T02:50:11.759Z,16.00
2022-08-02T02:52:55.651Z,15.70
2022-08-02T02:58:42.817Z,15.80
2022-08-02T03:01:56.876Z,15.70
2022-08-02T03:07:33.435Z,15.30
2022-08-02T03:10:26.316Z,15.20
2022-08-02T03:13:11.761Z,15.60
2022-08-02T03:16:07.066Z,15.60
2022-08-02T03:18:58.897Z,15.10
2022-08-02T03:21:38.884Z,15.60
2022-08-02T03:24:51.266Z,15.60
2022-08-02T03:30:46.516Z,15.50
2022-08-02T03:33:33.420Z,15.20
2022-08-02T03:36:36.012Z,15.40
2022-08-02T03:39:21.199Z,15.20
2022-08-02T03:45:33.479Z,15.30
2022-08-02T03:48:30.653Z,15.20
2022-08-02T03:54:48.501Z,15.20
2022-08-02T04:00:46.419Z,15.20
2022-08-02T04:03:44.022Z,14.50
2022-08-02T04:06:53.107Z,15.10
2022-08-02T04:09:41.736Z,15.20
2022-08-02T04:12:46.593Z,15.10
2022-08-02T04:15:25.849Z,15.10
2022-08-02T04:18:21.900Z,15.30
2022-08-02T04:21:16.080Z,15.30
2022-08-02T04:24:04.897Z,15.40
2022-08-02T04:26:50.429Z,15.50
2022-08-02T04:29:46.975Z,15.50
2022-08-02T04:32:31.938Z,15.70
2022-08-02T04:35:23.124Z,15.70
2022-08-02T04:38:08.923Z,15.50
2022-08-02T04:40:59.902Z,15.30
2022-08-02T04:43:47.405Z,15.60
2022-08-02T04:49:52.207Z,15.60
2022-08-02T05:07:24.254Z,16.10
2022-08-02T05:10:22.010Z,15.70
2022-08-02T05:13:19.088Z,16.00
2022-08-02T05:19:06.742Z,16.70
2022-08-02T05:22:04.169Z,16.70
2022-08-02T05:24:46.853Z,17.10
2022-08-02T05:27:30.262Z,17.20
2022-08-02T05:30:21.975Z,17.30
2022-08-02T05:42:21.237Z,17.80
2022-08-02T05:51:25.274Z,18.00
2022-08-02T05:57:48.427Z,17.90
2022-08-02T06:03:57.164Z,18.30
2022-08-02T06:18:54.794Z,19.00
2022-08-02T06:22:40.610Z,19.10
2022-08-02T06:25:03.932Z,19.80
2022-08-02T06:27:55.563Z,19.40
2022-08-02T06:30:47.088Z,19.40
2022-08-02T06:33:31.371Z,19.90
2022-08-02T06:36:26.266Z,20.20
2022-08-02T06:39:33.384Z,20.20
2022-08-02T06:42:27.206Z,20.40
2022-08-02T06:45:18.558Z,20.70
2022-08-02T06:48:08.466Z,20.90
2022-08-02T06:50:56.169Z,21.10
2022-08-02T06:53:45.160Z,21.20
2022-08-02T06:56:44.357Z,21.20
2022-08-02T06:59:39.355Z,21.80
2022-08-02T07:02:44.430Z,21.70
2022-08-02T07:05:18.719Z,21.80
2022-08-02T07:08:05.627Z,21.80
2022-08-02T10:50:20.281Z,26.30
2022-08-02T10:53:44.017Z,26.30
2022-08-02T10:56:41.891Z,26.20
2022-08-02T10:59:50.757Z,26.20
2022-08-02T11:19:07.115Z,26.70
2022-08-02T11:22:43.153Z,27.10
2022-08-02T11:26:03.671Z,27.00
2022-08-02T11:28:51.105Z,27.40
2022-08-02T11:32:09.332Z,27.00
2022-08-02T11:35:20.616Z,27.50
2022-08-02T11:38:41.524Z,26.90
2022-08-02T11:41:51.891Z,27.30
2022-08-02T11:44:38.587Z,26.90
2022-08-02T11:47:26.365Z,26.60
2022-08-02T11:50:30.272Z,27.20
2022-08-02T11:53:56.867Z,27.00
2022-08-02T11:56:55.239Z,27.00
2022-08-02T11:59:28.269Z,27.40
2022-08-02T12:02:00.689Z,27.30
2022-08-02T12:04:32.479Z,27.10
2022-08-02T12:07:15.796Z,27.20
2022-08-02T12:10:26.578Z,27.10
2022-08-02T12:13:37.927Z,26.80
2022-08-02T13:42:47.437Z,28.50
2022-08-02T13:48:41.549Z,29.00
2022-08-02T13:51:37.172Z,29.10
2022-08-02T13:54:30.305Z,28.80
2022-08-02T13:57:31.133Z,29.10
2022-08-02T14:00:40.595Z,29.00
2022-08-02T14:03:26.484Z,29.10
2022-08-02T14:06:45.953Z,29.40
2022-08-02T14:09:30.746Z,28.80
2022-08-02T14:13:37.838Z,28.40
2022-08-02T14:19:55.769Z,28.80
2022-08-02T14:33:04.545Z,29.10
2022-08-02T14:36:01.575Z,28.90
2022-08-02T14:38:53.070Z,28.60
2022-08-02T15:03:13.580Z,28.60
2022-08-02T15:06:31.035Z,28.90
2022-08-02T15:12:25.260Z,28.70
2022-08-02T15:19:59.352Z,28.70
2022-08-02T15:23:19.859Z,28.70
